Terminal Aerodrome Forecast
Issued by NWS

Home | Current Version | Previous Version | Text Only | Print | Product List | Glossary On
Versions: 1 2 3 4 5 6 7 8 9 10 11 12 13 14 15 16 17 18
000
FTUS45 KPIH 050307 AAB
TAFSUN
TAF AMD
KSUN 050307Z 0503/0524 21011KT P6SM SCT040 OVC060
     FM050900 32009KT P6SM SCT040
     FM051900 15008KT P6SM BKN080
      AMD LTD TO CLD VIS AND WIND 0506/0514=

USA.gov is the U.S. government's official web portal to all federal, state and local government web resources and services.